createdAt,value
2023-07-25T00:01:54.211Z,65.78
2023-07-25T00:04:21.134Z,66.04
2023-07-25T00:06:48.039Z,66.04
2023-07-25T00:09:14.847Z,65.88
2023-07-25T00:11:41.669Z,65.98
2023-07-25T00:14:08.486Z,66.12
2023-07-25T00:16:35.372Z,66.07
2023-07-25T00:19:02.199Z,66.41
2023-07-25T00:21:29.131Z,66.56
2023-07-25T00:23:55.991Z,66.45
2023-07-25T00:26:22.897Z,66.43
2023-07-25T00:28:49.652Z,66.49
2023-07-25T00:31:16.469Z,66.65
2023-07-25T00:33:43.423Z,66.55
2023-07-25T00:36:10.463Z,67.06
2023-07-25T00:38:37.312Z,66.90
2023-07-25T00:41:04.181Z,66.74
2023-07-25T00:43:31.207Z,66.67
2023-07-25T00:45:58.351Z,66.65
2023-07-25T00:48:25.420Z,66.89
2023-07-25T00:50:52.264Z,66.74
2023-07-25T00:53:19.309Z,66.68
2023-07-25T00:55:46.188Z,66.81
2023-07-25T00:58:13.069Z,67.06
2023-07-25T01:00:40.107Z,66.96
2023-07-25T01:03:07.872Z,66.99
2023-07-25T01:05:37.876Z,67.31
2023-07-25T01:08:04.896Z,67.15
2023-07-25T01:10:33.688Z,67.41
2023-07-25T01:13:00.565Z,67.35
2023-07-25T01:15:28.794Z,67.28
2023-07-25T01:17:55.856Z,67.31
2023-07-25T01:20:23.625Z,67.42
2023-07-25T01:22:52.095Z,67.63
2023-07-25T01:25:18.964Z,67.59
2023-07-25T01:27:45.862Z,67.39
2023-07-25T01:30:12.872Z,67.73
2023-07-25T01:32:39.861Z,67.97
2023-07-25T01:35:07.958Z,68.02
2023-07-25T01:37:34.894Z,67.98
2023-07-25T01:40:01.808Z,68.04
2023-07-25T01:42:28.693Z,68.14
2023-07-25T01:44:55.551Z,68.15
2023-07-25T01:47:27.345Z,68.47
2023-07-25T01:49:54.675Z,68.15
2023-07-25T01:52:21.981Z,68.39
2023-07-25T01:54:51.143Z,68.34
2023-07-25T01:57:18.483Z,68.43
2023-07-25T01:59:45.362Z,68.42
2023-07-25T02:02:12.250Z,68.02
2023-07-25T02:04:39.071Z,68.36
2023-07-25T02:07:06.233Z,68.75
2023-07-25T02:09:33.078Z,68.85
2023-07-25T02:11:59.925Z,68.77
2023-07-25T02:14:26.882Z,68.85
2023-07-25T02:16:54.345Z,68.93
2023-07-25T02:19:21.708Z,69.10
2023-07-25T02:21:48.604Z,69.19
2023-07-25T02:24:15.494Z,69.06
2023-07-25T02:26:42.393Z,69.53
2023-07-25T02:29:09.291Z,69.47
2023-07-25T02:31:36.493Z,69.68
2023-07-25T02:34:03.576Z,69.96
2023-07-25T02:36:30.533Z,69.96
2023-07-25T02:38:57.352Z,70.32
2023-07-25T02:41:25.739Z,70.14
2023-07-25T02:43:52.696Z,69.84
2023-07-25T02:46:19.661Z,70.00
2023-07-25T02:48:46.488Z,70.18
2023-07-25T02:51:13.865Z,70.26
2023-07-25T02:53:40.898Z,70.31
2023-07-25T02:56:07.807Z,70.04
2023-07-25T02:58:34.725Z,70.58
2023-07-25T03:01:01.712Z,70.35
2023-07-25T03:03:28.671Z,70.17
2023-07-25T03:05:55.693Z,70.25
2023-07-25T03:08:22.560Z,70.54
2023-07-25T03:10:49.436Z,70.29
2023-07-25T03:13:16.613Z,70.50
2023-07-25T03:15:43.519Z,70.46
2023-07-25T03:18:10.430Z,70.44
2023-07-25T03:20:37.331Z,70.76
2023-07-25T03:23:04.310Z,71.07
2023-07-25T03:25:31.118Z,70.89
2023-07-25T03:27:57.915Z,71.02
2023-07-25T03:30:24.838Z,71.34
2023-07-25T03:32:51.645Z,71.08
2023-07-25T03:35:18.578Z,71.50
2023-07-25T03:37:45.391Z,71.54
2023-07-25T03:40:12.417Z,71.62
2023-07-25T03:42:39.270Z,71.58
2023-07-25T03:45:06.564Z,71.81
2023-07-25T03:47:34.169Z,71.72
2023-07-25T03:50:01.015Z,71.66
2023-07-25T03:52:28.557Z,72.08
2023-07-25T03:54:55.465Z,72.05
2023-07-25T03:57:22.298Z,72.35
2023-07-25T03:59:49.165Z,72.06
2023-07-25T04:02:22.192Z,72.51
2023-07-25T04:04:52.537Z,72.32
2023-07-25T04:07:19.489Z,72.37
2023-07-25T04:09:46.312Z,72.47
2023-07-25T04:12:13.178Z,72.34
2023-07-25T04:14:41.943Z,71.98
2023-07-25T04:17:08.826Z,71.87
2023-07-25T04:19:35.679Z,71.92
2023-07-25T04:22:02.582Z,71.82
2023-07-25T04:24:29.446Z,71.76
2023-07-25T04:26:56.301Z,71.73
2023-07-25T04:29:23.143Z,71.57
2023-07-25T04:31:49.973Z,71.52
2023-07-25T04:34:16.852Z,71.77
2023-07-25T04:36:43.803Z,71.50
2023-07-25T04:39:10.747Z,71.60
2023-07-25T04:41:37.666Z,71.63
2023-07-25T04:44:04.716Z,71.75
2023-07-25T04:46:31.686Z,71.81
2023-07-25T04:48:58.559Z,71.53
2023-07-25T04:51:25.525Z,71.41
2023-07-25T04:53:55.224Z,71.74
2023-07-25T04:56:22.034Z,71.70
2023-07-25T04:58:48.885Z,71.28
2023-07-25T05:01:16.496Z,71.14
2023-07-25T05:03:43.489Z,71.09
2023-07-25T05:06:10.336Z,70.96
2023-07-25T05:08:37.259Z,70.92
2023-07-25T05:11:04.500Z,70.74
2023-07-25T05:13:31.379Z,70.45
2023-07-25T05:15:58.312Z,70.51
2023-07-25T05:18:25.267Z,70.36
2023-07-25T05:20:52.063Z,70.12
2023-07-25T05:23:18.971Z,69.82
2023-07-25T05:25:49.012Z,69.61
2023-07-25T05:28:16.250Z,69.47
2023-07-25T05:30:43.096Z,69.25
2023-07-25T05:33:09.977Z,69.08
2023-07-25T05:35:38.669Z,68.68
2023-07-25T05:38:09.319Z,68.68
2023-07-25T05:40:36.631Z,68.35
2023-07-25T05:43:04.312Z,68.09
2023-07-25T05:45:31.376Z,67.78
2023-07-25T05:47:58.322Z,67.37
2023-07-25T05:50:25.204Z,67.04
2023-07-25T05:52:52.038Z,66.73
2023-07-25T05:55:18.915Z,66.29
2023-07-25T05:57:45.840Z,65.85
2023-07-25T06:00:13.321Z,65.21
2023-07-25T06:02:40.224Z,65.13
2023-07-25T06:05:08.273Z,64.36
2023-07-25T06:07:35.118Z,64.13
2023-07-25T06:10:03.195Z,63.66
2023-07-25T06:12:30.434Z,63.14
2023-07-25T06:14:57.265Z,62.49
2023-07-25T06:17:24.272Z,62.07
2023-07-25T06:19:51.098Z,61.50
2023-07-25T06:22:18.061Z,60.99
2023-07-25T06:24:45.020Z,60.42
2023-07-25T06:27:11.843Z,60.25
2023-07-25T06:29:38.670Z,59.58
2023-07-25T06:32:05.868Z,59.28
2023-07-25T06:34:32.696Z,58.63
2023-07-25T06:36:59.487Z,58.22
2023-07-25T06:39:26.365Z,58.00
2023-07-25T06:41:53.227Z,57.40
2023-07-25T06:44:21.140Z,57.39
2023-07-25T06:46:48.200Z,56.99
2023-07-25T06:49:15.275Z,56.73
2023-07-25T06:51:42.113Z,56.20
2023-07-25T06:54:09.049Z,55.51
2023-07-25T06:56:35.891Z,54.78
2023-07-25T06:59:02.814Z,54.20
2023-07-25T07:01:30.136Z,53.70
2023-07-25T07:03:57.230Z,53.46
2023-07-25T07:06:24.055Z,52.26
2023-07-25T07:08:50.865Z,52.12
2023-07-25T07:11:18.372Z,51.86
2023-07-25T07:13:45.248Z,51.10
2023-07-25T07:16:12.108Z,50.97
2023-07-25T07:18:39.066Z,49.88
2023-07-25T07:21:06.766Z,49.27
2023-07-25T07:23:33.726Z,48.48
2023-07-25T07:26:00.571Z,48.63
2023-07-25T07:28:28.176Z,47.98
2023-07-25T07:30:55.045Z,47.80
2023-07-25T07:33:23.331Z,47.17
2023-07-25T07:35:50.202Z,46.89
2023-07-25T07:38:17.024Z,47.11
2023-07-25T07:40:43.860Z,47.14
2023-07-25T07:43:10.765Z,46.86
2023-07-25T07:45:37.578Z,46.70
2023-07-25T07:48:04.704Z,47.33
2023-07-25T07:50:34.416Z,47.93
2023-07-25T07:53:02.425Z,47.55
2023-07-25T07:55:29.859Z,48.00
2023-07-25T07:57:56.861Z,48.53
2023-07-25T08:00:25.195Z,48.54
2023-07-25T08:02:53.331Z,48.77
2023-07-25T08:05:20.265Z,49.20
2023-07-25T08:07:47.574Z,49.40
2023-07-25T08:10:14.740Z,49.77
2023-07-25T08:12:42.070Z,49.66
2023-07-25T08:15:09.612Z,49.77
2023-07-25T08:17:36.721Z,49.85
2023-07-25T08:20:04.077Z,50.06
2023-07-25T08:22:30.901Z,49.64
2023-07-25T08:24:59.419Z,50.00
2023-07-25T08:27:26.372Z,50.15
2023-07-25T08:29:53.300Z,50.28
2023-07-25T08:32:20.182Z,50.71
2023-07-25T08:34:47.164Z,50.65
2023-07-25T08:37:13.996Z,51.03
2023-07-25T08:39:40.811Z,51.54
2023-07-25T08:42:10.701Z,51.81
2023-07-25T08:44:38.389Z,52.44
2023-07-25T08:47:11.103Z,52.76
2023-07-25T08:49:41.553Z,53.00
2023-07-25T08:52:09.427Z,53.21
2023-07-25T08:54:38.292Z,53.82
2023-07-25T08:57:05.780Z,54.79
2023-07-25T08:59:33.083Z,55.12
2023-07-25T09:02:00.550Z,55.69
2023-07-25T09:04:29.510Z,56.39
2023-07-25T09:06:56.376Z,57.13
2023-07-25T09:09:24.754Z,58.15
2023-07-25T09:11:51.677Z,58.99
2023-07-25T09:14:18.626Z,59.67
2023-07-25T09:16:45.507Z,60.04
2023-07-25T09:19:13.855Z,59.83
2023-07-25T09:21:51.710Z,60.51
2023-07-25T09:24:19.011Z,60.61
2023-07-25T09:26:53.535Z,60.72
2023-07-25T09:29:22.160Z,60.56
2023-07-25T09:31:49.141Z,60.48
2023-07-25T09:34:24.476Z,61.11
2023-07-25T09:36:52.683Z,60.70
2023-07-25T09:39:19.532Z,60.23
2023-07-25T09:41:46.954Z,60.45
2023-07-25T09:44:14.317Z,59.90
2023-07-25T09:46:52.317Z,60.16
2023-07-25T09:49:22.356Z,59.75
2023-07-25T09:52:04.482Z,60.25
2023-07-25T09:54:31.316Z,60.04
2023-07-25T09:56:59.016Z,59.81
2023-07-25T09:59:26.037Z,60.68
2023-07-25T10:01:53.676Z,60.70
2023-07-25T10:04:23.382Z,62.34
2023-07-25T10:06:50.750Z,61.61
2023-07-25T10:09:18.864Z,61.79
2023-07-25T10:11:47.659Z,62.12
2023-07-25T10:14:15.115Z,62.70
2023-07-25T10:16:42.368Z,63.00
2023-07-25T10:19:09.398Z,63.01
2023-07-25T10:21:52.594Z,63.59
2023-07-25T10:24:21.416Z,63.17
2023-07-25T10:26:58.450Z,63.33
2023-07-25T10:29:38.896Z,63.40
2023-07-25T10:32:08.286Z,63.00
2023-07-25T10:34:48.274Z,63.04
2023-07-25T10:37:24.714Z,62.84
2023-07-25T10:40:17.647Z,62.44
2023-07-25T10:43:04.352Z,62.34
2023-07-25T10:45:34.529Z,61.67
2023-07-25T10:48:01.821Z,60.57
2023-07-25T10:50:46.889Z,58.62
2023-07-25T10:53:18.120Z,57.53
2023-07-25T10:56:11.606Z,55.98
2023-07-25T10:59:00.968Z,55.70
2023-07-25T11:01:41.527Z,55.24
2023-07-25T11:04:29.336Z,53.68
2023-07-25T11:07:14.723Z,53.58
2023-07-25T11:09:45.657Z,52.89
2023-07-25T11:12:13.404Z,52.10
2023-07-25T11:14:50.606Z,51.89
2023-07-25T11:17:17.539Z,52.35
2023-07-25T11:19:44.403Z,52.08
2023-07-25T11:22:13.031Z,51.80
2023-07-25T11:24:48.378Z,52.17
2023-07-25T11:27:15.851Z,51.71
2023-07-25T11:29:42.851Z,50.28
2023-07-25T11:32:09.925Z,49.28
2023-07-25T11:34:36.852Z,49.06
2023-07-25T11:37:12.962Z,46.88
2023-07-25T11:39:39.898Z,46.10
2023-07-25T11:42:09.436Z,45.23
2023-07-25T11:44:36.462Z,44.89
2023-07-25T11:47:03.809Z,44.57
2023-07-25T11:49:47.491Z,43.86
2023-07-25T11:52:17.050Z,43.75
2023-07-25T11:54:44.028Z,43.34
2023-07-25T11:57:12.266Z,43.15
2023-07-25T11:59:42.784Z,43.30
2023-07-25T12:02:11.217Z,43.69
2023-07-25T12:04:45.588Z,43.20
2023-07-25T12:07:16.245Z,43.48
2023-07-25T12:09:56.326Z,43.93
2023-07-25T12:12:23.351Z,43.44
2023-07-25T12:14:58.689Z,43.76
2023-07-25T12:17:42.248Z,43.62
2023-07-25T12:20:19.910Z,44.11
2023-07-25T12:22:47.707Z,44.86
2023-07-25T12:25:19.295Z,45.12
2023-07-25T12:27:47.880Z,45.17
2023-07-25T12:30:15.502Z,46.18
2023-07-25T12:32:42.427Z,45.40
2023-07-25T12:35:11.138Z,45.75
2023-07-25T12:37:37.967Z,44.44
2023-07-25T12:40:05.446Z,44.09
2023-07-25T12:42:32.254Z,43.58
2023-07-25T12:45:03.956Z,43.35
2023-07-25T12:47:30.824Z,42.21
2023-07-25T12:49:57.704Z,42.39
2023-07-25T12:52:24.517Z,41.86
2023-07-25T12:54:51.395Z,41.92
2023-07-25T12:57:18.361Z,42.11
2023-07-25T12:59:46.408Z,41.64
2023-07-25T13:02:19.543Z,40.68
2023-07-25T13:04:46.753Z,40.66
2023-07-25T13:07:14.883Z,40.10
2023-07-25T13:09:41.836Z,40.34
2023-07-25T13:12:09.041Z,40.28
2023-07-25T13:14:35.976Z,39.62
2023-07-25T13:17:02.992Z,39.74
2023-07-25T13:19:32.435Z,39.47
2023-07-25T13:21:59.347Z,39.01
2023-07-25T13:24:26.348Z,39.51
2023-07-25T13:26:53.270Z,39.36
2023-07-25T13:29:20.338Z,39.42
2023-07-25T13:31:47.262Z,39.28
2023-07-25T13:34:14.338Z,39.78
2023-07-25T13:36:41.300Z,40.35
2023-07-25T13:39:08.732Z,40.26
2023-07-25T13:41:35.740Z,40.51
2023-07-25T13:44:02.867Z,40.64
2023-07-25T13:46:29.939Z,40.07
2023-07-25T13:48:56.903Z,39.50
2023-07-25T13:51:24.029Z,39.67
2023-07-25T13:53:51.045Z,39.34
2023-07-25T13:56:20.592Z,39.22
2023-07-25T13:58:47.587Z,39.52
2023-07-25T14:01:14.950Z,38.82
2023-07-25T14:03:43.443Z,38.93
2023-07-25T14:06:10.674Z,39.16
2023-07-25T14:08:37.695Z,38.98
2023-07-25T14:11:04.671Z,38.75
2023-07-25T14:13:32.075Z,39.26
2023-07-25T14:16:00.588Z,39.77
2023-07-25T14:18:27.606Z,40.36
2023-07-25T14:20:56.609Z,41.55
2023-07-25T14:23:23.815Z,42.18
2023-07-25T14:25:51.145Z,42.84
2023-07-25T14:28:18.056Z,43.33
2023-07-25T14:30:44.984Z,44.17
2023-07-25T14:33:13.897Z,44.54
2023-07-25T14:35:43.265Z,44.86
2023-07-25T14:38:14.027Z,45.45
2023-07-25T14:40:41.686Z,46.45
2023-07-25T14:43:08.739Z,47.40
2023-07-25T14:45:35.843Z,48.76
2023-07-25T14:48:05.996Z,49.29
2023-07-25T14:50:34.062Z,50.87
2023-07-25T14:53:01.120Z,51.66
2023-07-25T14:55:29.324Z,52.48
2023-07-25T14:57:56.241Z,52.82
2023-07-25T15:00:25.493Z,53.39
2023-07-25T15:02:52.776Z,53.50
2023-07-25T15:05:20.025Z,54.07
2023-07-25T15:07:50.077Z,54.35
2023-07-25T15:10:17.067Z,54.95
2023-07-25T15:12:44.116Z,55.18
2023-07-25T15:15:11.732Z,55.26
2023-07-25T15:17:38.884Z,55.34
2023-07-25T15:20:11.629Z,55.04
2023-07-25T15:22:39.029Z,55.51
2023-07-25T15:25:06.544Z,55.70
2023-07-25T15:27:34.133Z,56.34
2023-07-25T15:30:01.348Z,56.55
2023-07-25T15:32:28.615Z,56.87
2023-07-25T15:34:55.643Z,56.97
2023-07-25T15:37:22.584Z,57.07
2023-07-25T15:39:49.635Z,56.78
2023-07-25T15:42:16.689Z,56.93
2023-07-25T15:44:43.732Z,57.12
2023-07-25T15:47:10.809Z,56.84
2023-07-25T15:52:28.051Z,56.57
2023-07-25T15:54:55.439Z,56.10
2023-07-25T15:57:22.473Z,55.49
2023-07-25T15:59:49.528Z,54.51
2023-07-25T16:02:17.070Z,53.82
2023-07-25T16:04:44.016Z,53.17
2023-07-25T16:07:10.988Z,52.57
2023-07-25T16:09:38.838Z,51.56
2023-07-25T16:12:07.475Z,51.74
2023-07-25T16:14:34.384Z,51.14
2023-07-25T16:17:01.406Z,50.85
2023-07-25T16:19:28.716Z,50.52
2023-07-25T16:21:55.610Z,50.52
2023-07-25T16:24:22.730Z,49.83
2023-07-25T16:26:49.617Z,50.01
2023-07-25T16:29:19.630Z,50.04
2023-07-25T16:31:51.321Z,49.80
2023-07-25T16:34:18.652Z,49.67
2023-07-25T16:36:45.546Z,49.99
2023-07-25T16:39:12.541Z,50.38
2023-07-25T16:41:39.484Z,50.22
2023-07-25T16:44:06.390Z,49.90
2023-07-25T16:46:33.416Z,50.30
2023-07-25T16:49:00.354Z,50.33
2023-07-25T16:51:37.053Z,50.65
2023-07-25T16:54:03.988Z,51.26
2023-07-25T16:56:31.210Z,52.19
2023-07-25T16:58:58.470Z,53.51
2023-07-25T17:01:25.358Z,54.23
2023-07-25T17:03:52.395Z,54.33
2023-07-25T17:06:19.276Z,53.82
2023-07-25T17:08:47.187Z,54.05
2023-07-25T17:11:15.993Z,54.17
2023-07-25T17:13:43.131Z,53.77
2023-07-25T17:16:10.967Z,54.12
2023-07-25T17:18:37.886Z,54.58
2023-07-25T17:21:04.814Z,54.34
2023-07-25T17:23:31.762Z,53.93
2023-07-25T17:25:58.624Z,53.94
2023-07-25T17:28:25.863Z,53.19
2023-07-25T17:30:52.872Z,52.86
2023-07-25T17:33:19.787Z,52.31
2023-07-25T17:35:46.737Z,52.00
2023-07-25T17:38:15.148Z,51.96
2023-07-25T17:40:42.980Z,51.68
2023-07-25T17:43:09.864Z,52.16
2023-07-25T17:45:39.610Z,52.98
2023-07-25T17:48:06.954Z,52.88
2023-07-25T17:50:33.853Z,53.07
2023-07-25T17:53:00.936Z,54.36
2023-07-25T17:55:28.482Z,54.50
2023-07-25T17:57:55.337Z,54.79
2023-07-25T18:00:22.307Z,56.07
2023-07-25T18:02:49.320Z,56.70
2023-07-25T18:05:16.306Z,57.25
2023-07-25T18:07:43.173Z,57.43
2023-07-25T18:10:10.202Z,58.35
2023-07-25T18:12:37.086Z,58.63
2023-07-25T18:15:04.386Z,58.49
2023-07-25T18:17:31.305Z,59.11
2023-07-25T18:19:58.155Z,59.76
2023-07-25T18:22:27.107Z,59.92
2023-07-25T18:24:54.025Z,59.85
2023-07-25T18:27:20.977Z,60.57
2023-07-25T18:29:47.806Z,61.70
2023-07-25T18:32:14.688Z,62.78
2023-07-25T18:34:41.539Z,62.39
2023-07-25T18:37:08.676Z,62.39
2023-07-25T18:39:35.588Z,62.96
2023-07-25T18:42:02.575Z,63.09
2023-07-25T18:44:29.506Z,62.91
2023-07-25T18:46:56.372Z,63.06
2023-07-25T18:49:24.823Z,62.86
2023-07-25T18:51:52.232Z,63.58
2023-07-25T18:54:19.147Z,63.63
2023-07-25T18:56:46.028Z,63.33
2023-07-25T18:59:12.864Z,63.86
2023-07-25T19:01:39.778Z,63.90
2023-07-25T19:04:06.914Z,63.80
2023-07-25T19:06:34.254Z,63.58
2023-07-25T19:09:01.433Z,64.22
2023-07-25T19:11:28.297Z,64.65
2023-07-25T19:13:55.195Z,64.64
2023-07-25T19:16:22.301Z,64.83
2023-07-25T19:18:51.659Z,64.85
2023-07-25T19:21:19.437Z,64.92
2023-07-25T19:23:46.445Z,65.08
2023-07-25T19:26:13.283Z,64.88
2023-07-25T19:28:40.200Z,65.03
2023-07-25T19:31:07.813Z,65.30
2023-07-25T19:33:34.888Z,65.61
2023-07-25T19:36:01.982Z,65.17
2023-07-25T19:38:29.250Z,65.77
2023-07-25T19:40:56.264Z,65.80
2023-07-25T19:43:23.444Z,65.78
2023-07-25T19:45:50.439Z,65.90
2023-07-25T19:48:18.279Z,66.17
2023-07-25T19:50:48.091Z,66.41
2023-07-25T19:53:15.904Z,66.60
2023-07-25T19:55:42.919Z,66.35
2023-07-25T19:58:09.792Z,66.86
2023-07-25T20:00:38.154Z,66.60
2023-07-25T20:03:05.513Z,66.77
2023-07-25T20:05:32.631Z,66.60
2023-07-25T20:08:00.775Z,66.51
2023-07-25T20:10:27.673Z,66.44
2023-07-25T20:12:54.506Z,66.27
2023-07-25T20:15:21.529Z,66.15
2023-07-25T20:17:51.670Z,66.05
2023-07-25T20:20:18.624Z,66.19
2023-07-25T20:22:45.556Z,66.38
2023-07-25T20:25:16.208Z,66.29
2023-07-25T20:27:43.115Z,66.36
2023-07-25T20:30:12.344Z,66.06
2023-07-25T20:32:39.488Z,66.16
2023-07-25T20:35:06.591Z,66.48
2023-07-25T20:37:33.726Z,66.54
2023-07-25T20:40:00.549Z,66.92
2023-07-25T20:42:27.466Z,66.77
2023-07-25T20:44:54.284Z,66.55
2023-07-25T20:47:21.108Z,66.95
2023-07-25T20:49:48.012Z,67.17
2023-07-25T20:52:14.838Z,67.22
2023-07-25T20:54:41.653Z,67.90
2023-07-25T20:57:08.476Z,67.88
2023-07-25T20:59:35.315Z,68.44
2023-07-25T21:02:04.680Z,68.75
2023-07-25T21:04:31.528Z,68.51
2023-07-25T21:06:58.412Z,68.65
2023-07-25T21:09:28.187Z,68.98
2023-07-25T21:11:55.122Z,69.22
2023-07-25T21:14:22.368Z,69.20
2023-07-25T21:16:51.405Z,69.51
2023-07-25T21:19:18.351Z,69.72
2023-07-25T21:21:45.222Z,69.73
2023-07-25T21:24:12.111Z,69.50
2023-07-25T21:26:38.963Z,69.49
2023-07-25T21:29:05.808Z,69.52
2023-07-25T21:31:32.688Z,69.37
2023-07-25T21:34:02.413Z,69.60
2023-07-25T21:36:30.569Z,69.91
2023-07-25T21:38:57.630Z,69.71
2023-07-25T21:41:24.504Z,69.64
2023-07-25T21:43:51.408Z,69.72
2023-07-25T21:46:18.299Z,69.45
2023-07-25T21:48:46.068Z,69.74
2023-07-25T21:51:13.125Z,69.49
2023-07-25T21:53:40.169Z,70.03
2023-07-25T21:56:07.020Z,69.82
2023-07-25T21:58:33.891Z,70.52
2023-07-25T22:01:00.801Z,70.18
2023-07-25T22:03:33.076Z,70.31
2023-07-25T22:06:00.719Z,69.95
2023-07-25T22:08:27.940Z,69.95
2023-07-25T22:10:55.710Z,69.81
2023-07-25T22:13:23.882Z,69.85
2023-07-25T22:15:50.934Z,69.80
2023-07-25T22:18:17.958Z,69.64
2023-07-25T22:20:51.568Z,69.59
2023-07-25T22:23:20.372Z,69.68
2023-07-25T22:25:47.302Z,69.71
2023-07-25T22:28:14.149Z,69.91
2023-07-25T22:30:40.994Z,70.39
2023-07-25T22:33:07.840Z,70.00
2023-07-25T22:35:35.991Z,70.46
2023-07-25T22:38:04.246Z,71.12
2023-07-25T22:40:31.365Z,70.86
2023-07-25T22:42:58.201Z,71.14
2023-07-25T22:45:27.019Z,71.45
2023-07-25T22:47:54.508Z,71.84
2023-07-25T22:50:21.749Z,72.19
2023-07-25T22:52:49.136Z,72.22
2023-07-25T22:55:19.063Z,72.21
2023-07-25T22:57:46.346Z,72.52
2023-07-25T23:00:13.577Z,72.47
2023-07-25T23:02:40.912Z,72.61
2023-07-25T23:05:08.271Z,72.78
2023-07-25T23:07:35.354Z,72.86
2023-07-25T23:10:03.125Z,73.04
2023-07-25T23:12:30.094Z,73.00
2023-07-25T23:14:57.114Z,72.99
2023-07-25T23:17:25.056Z,73.14
2023-07-25T23:19:52.047Z,73.29
2023-07-25T23:22:19.707Z,73.39
2023-07-25T23:24:46.796Z,73.43
2023-07-25T23:27:13.699Z,73.72
2023-07-25T23:29:40.554Z,73.37
2023-07-25T23:32:07.822Z,73.49
2023-07-25T23:34:50.397Z,73.83
2023-07-25T23:37:18.199Z,73.53
2023-07-25T23:39:45.333Z,73.63
2023-07-25T23:42:12.743Z,73.60
2023-07-25T23:44:39.748Z,73.41
2023-07-25T23:47:07.208Z,73.51
2023-07-25T23:49:34.876Z,73.63
2023-07-25T23:52:02.257Z,73.23
2023-07-25T23:54:29.112Z,73.24
2023-07-25T23:56:55.970Z,73.29
2023-07-25T23:59:22.929Z,73.12
